createdAt,value
2023-01-30T00:01:17.595Z,101154.81
2023-01-30T00:03:45.230Z,101150.47
2023-01-30T00:06:12.949Z,101146.50
2023-01-30T00:08:39.952Z,101137.75
2023-01-30T00:11:09.360Z,101156.13
2023-01-30T00:13:36.475Z,101129.63
2023-01-30T00:16:03.932Z,101125.81
2023-01-30T00:18:31.392Z,101122.44
2023-01-30T00:21:03.643Z,101119.16
2023-01-30T00:23:32.089Z,101126.72
2023-01-30T00:25:59.234Z,101136.13
2023-01-30T00:28:26.207Z,101123.72
2023-01-30T00:30:54.440Z,101129.56
2023-01-30T00:33:26.185Z,101115.78
2023-01-30T00:35:54.504Z,101102.63
2023-01-30T00:38:22.117Z,101100.41
2023-01-30T00:40:49.821Z,101103.00
2023-01-30T00:43:37.264Z,101103.00
2023-01-30T00:46:51.601Z,101105.72
2023-01-30T00:49:20.126Z,101099.69
2023-01-30T00:51:47.359Z,101099.34
2023-01-30T00:54:14.363Z,101072.84
2023-01-30T00:56:41.159Z,101068.06
2023-01-30T00:59:07.999Z,101069.94
2023-01-30T01:01:35.026Z,101059.81
2023-01-30T01:04:02.072Z,101072.78
2023-01-30T01:06:29.227Z,101087.22
2023-01-30T01:08:56.680Z,101078.31
2023-01-30T01:11:26.373Z,101082.19
2023-01-30T01:13:59.903Z,101077.88
2023-01-30T01:16:30.765Z,101079.53
2023-01-30T01:18:58.885Z,101072.31
2023-01-30T01:21:25.785Z,101083.78
2023-01-30T01:23:55.922Z,101073.31
2023-01-30T01:26:23.168Z,101065.06
2023-01-30T01:28:50.303Z,101074.53
2023-01-30T01:31:18.240Z,101078.47
2023-01-30T01:33:45.095Z,101082.22
2023-01-30T01:36:16.208Z,101081.09
2023-01-30T01:38:46.938Z,101074.28
2023-01-30T01:41:16.140Z,101085.94
2023-01-30T01:44:09.105Z,101066.38
2023-01-30T01:46:52.401Z,101069.22
2023-01-30T01:49:28.136Z,101068.94
2023-01-30T01:52:00.632Z,101068.22
2023-01-30T01:54:41.084Z,101069.50
2023-01-30T01:57:14.161Z,101059.66
2023-01-30T01:59:52.013Z,101069.84
2023-01-30T02:02:20.560Z,101063.97
2023-01-30T02:05:07.971Z,101055.56
2023-01-30T02:08:00.880Z,101056.72
2023-01-30T02:10:42.724Z,101050.03
2023-01-30T02:13:09.595Z,101047.19
2023-01-30T02:15:36.567Z,101042.66
2023-01-30T02:18:04.286Z,101044.53
2023-01-30T02:20:53.110Z,101037.09
2023-01-30T02:23:46.724Z,101027.59
2023-01-30T02:26:13.478Z,101017.84
2023-01-30T02:28:55.577Z,101020.28
2023-01-30T02:31:34.182Z,101017.56
2023-01-30T02:34:09.991Z,101028.22
2023-01-30T02:36:58.924Z,101017.75
2023-01-30T02:39:45.748Z,101014.47
2023-01-30T02:42:43.256Z,101007.88
2023-01-30T02:45:16.456Z,101007.97
2023-01-30T02:47:56.283Z,101003.03
2023-01-30T02:50:27.125Z,100985.28
2023-01-30T02:52:54.664Z,100969.53
2023-01-30T02:55:27.445Z,100970.34
2023-01-30T02:57:55.861Z,100975.47
2023-01-30T03:00:46.428Z,100959.88
2023-01-30T03:03:39.500Z,100957.72
2023-01-30T03:06:24.775Z,100947.19
2023-01-30T03:12:22.540Z,100949.97
2023-01-30T03:20:47.972Z,100948.81
2023-01-30T03:23:14.803Z,100947.78
2023-01-30T03:25:44.322Z,100931.84
2023-01-30T03:28:14.626Z,100944.47
2023-01-30T03:30:41.398Z,100946.75
2023-01-30T03:33:10.558Z,100954.53
2023-01-30T03:35:39.485Z,100935.06
2023-01-30T03:38:07.137Z,100942.25
2023-01-30T03:40:34.971Z,100933.41
2023-01-30T03:43:01.977Z,100941.03
2023-01-30T03:45:29.027Z,100929.03
2023-01-30T03:47:55.696Z,100927.88
2023-01-30T03:50:22.524Z,100915.72
2023-01-30T03:52:49.304Z,100912.94
2023-01-30T03:55:19.818Z,100924.09
2023-01-30T03:57:46.811Z,100926.25
2023-01-30T04:00:15.073Z,100930.75
2023-01-30T04:02:48.317Z,100925.44
2023-01-30T04:05:17.505Z,100930.75
2023-01-30T04:07:50.657Z,100920.28
2023-01-30T04:10:20.053Z,100912.06
2023-01-30T04:12:47.307Z,100904.06
2023-01-30T04:15:14.496Z,100902.63
2023-01-30T04:17:48.968Z,100907.56
2023-01-30T04:20:27.712Z,100914.16
2023-01-30T04:22:56.693Z,100899.25
2023-01-30T04:25:25.427Z,100904.78
2023-01-30T04:27:53.103Z,100895.91
2023-01-30T04:30:27.005Z,100903.78
2023-01-30T04:33:04.302Z,100901.63
2023-01-30T04:35:30.977Z,100888.53
2023-01-30T04:37:57.699Z,100898.75
2023-01-30T04:40:24.494Z,100885.75
2023-01-30T04:42:51.185Z,100898.16
2023-01-30T04:45:33.138Z,100890.38
2023-01-30T04:48:00.923Z,100889.34
2023-01-30T04:50:27.543Z,100881.28
2023-01-30T04:52:55.190Z,100876.03
2023-01-30T04:55:22.052Z,100877.22
2023-01-30T04:57:48.991Z,100873.25
2023-01-30T05:00:15.876Z,100869.38
2023-01-30T05:02:51.788Z,100860.88
2023-01-30T05:05:19.096Z,100864.13
2023-01-30T05:07:45.916Z,100862.81
2023-01-30T05:10:12.581Z,100861.91
2023-01-30T05:12:39.327Z,100863.16
2023-01-30T05:15:06.920Z,100866.63
2023-01-30T05:17:34.198Z,100862.19
2023-01-30T05:20:01.361Z,100854.72
2023-01-30T05:22:28.159Z,100860.25
2023-01-30T05:24:55.291Z,100864.38
2023-01-30T05:27:22.173Z,100869.91
2023-01-30T05:29:48.738Z,100865.41
2023-01-30T05:32:16.701Z,100868.25
2023-01-30T05:34:43.621Z,100866.53
2023-01-30T05:37:11.597Z,100873.38
2023-01-30T05:39:38.784Z,100857.50
2023-01-30T05:42:05.808Z,100867.63
2023-01-30T05:44:32.712Z,100877.38
2023-01-30T05:46:59.549Z,100885.28
2023-01-30T05:49:26.370Z,100880.03
2023-01-30T05:51:53.221Z,100881.78
2023-01-30T05:54:20.216Z,100876.63
2023-01-30T05:56:51.239Z,100875.44
2023-01-30T05:59:21.025Z,100868.69
2023-01-30T06:01:47.761Z,100860.66
2023-01-30T06:04:14.609Z,100865.41
2023-01-30T06:06:41.267Z,100875.34
2023-01-30T06:09:10.745Z,100878.53
2023-01-30T06:11:37.484Z,100873.00
2023-01-30T06:14:04.221Z,100857.00
2023-01-30T06:16:30.994Z,100857.13
2023-01-30T06:18:57.960Z,100860.47
2023-01-30T06:21:24.925Z,100872.56
2023-01-30T06:23:51.668Z,100866.44
2023-01-30T06:26:18.444Z,100872.56
2023-01-30T06:28:45.403Z,100879.75
2023-01-30T06:31:12.139Z,100893.47
2023-01-30T06:33:38.878Z,100902.28
2023-01-30T06:36:05.995Z,100895.13
2023-01-30T06:38:32.938Z,100896.34
2023-01-30T06:40:59.583Z,100899.03
2023-01-30T06:43:26.290Z,100895.75
2023-01-30T06:45:52.921Z,100894.81
2023-01-30T06:48:19.641Z,100895.56
2023-01-30T06:50:47.992Z,100892.59
2023-01-30T06:53:14.753Z,100908.06
2023-01-30T06:55:41.406Z,100907.16
2023-01-30T06:58:13.169Z,100913.31
2023-01-30T07:00:42.361Z,100919.34
2023-01-30T07:03:13.860Z,100928.75
2023-01-30T07:05:41.539Z,100928.38
2023-01-30T07:08:09.190Z,100920.91
2023-01-30T07:10:36.383Z,100917.53
2023-01-30T07:13:04.165Z,100928.00
2023-01-30T07:15:32.297Z,100925.72
2023-01-30T07:17:59.519Z,100916.22
2023-01-30T07:20:26.329Z,100923.69
2023-01-30T07:22:55.895Z,100928.84
2023-01-30T07:25:25.377Z,100924.97
2023-01-30T07:27:52.712Z,100934.28
2023-01-30T07:30:20.097Z,100924.66
2023-01-30T07:32:58.727Z,100938.09
2023-01-30T07:35:28.286Z,100929.47
2023-01-30T07:37:54.744Z,100930.31
2023-01-30T07:40:22.935Z,100928.03
2023-01-30T07:43:01.017Z,100931.34
2023-01-30T07:45:50.811Z,100938.50
2023-01-30T07:48:19.622Z,100934.66
2023-01-30T07:50:46.933Z,100934.03
2023-01-30T07:53:16.173Z,100946.75
2023-01-30T07:55:43.190Z,100947.56
2023-01-30T07:58:16.366Z,100945.00
2023-01-30T08:00:44.590Z,100948.59
2023-01-30T08:03:15.944Z,100941.13
2023-01-30T08:05:44.363Z,100948.41
2023-01-30T08:08:14.999Z,100945.63
2023-01-30T08:10:42.081Z,100940.03
2023-01-30T08:13:08.905Z,100955.91
2023-01-30T08:15:35.563Z,100948.34
2023-01-30T08:18:02.195Z,100961.56
2023-01-30T08:20:29.110Z,100968.13
2023-01-30T08:22:56.253Z,100962.19
2023-01-30T08:25:23.411Z,100970.00
2023-01-30T08:27:50.474Z,100971.09
2023-01-30T08:30:18.325Z,100959.69
2023-01-30T08:32:45.289Z,100973.25
2023-01-30T08:35:12.305Z,100956.13
2023-01-30T08:37:40.278Z,100972.53
2023-01-30T08:40:08.693Z,100973.25
2023-01-30T08:42:35.335Z,100984.63
2023-01-30T08:45:02.108Z,100994.91
2023-01-30T08:47:28.782Z,101000.97
2023-01-30T08:49:57.696Z,101001.78
2023-01-30T08:52:24.411Z,101004.03
2023-01-30T08:54:51.162Z,101003.22
2023-01-30T08:57:17.877Z,101001.78
2023-01-30T08:59:44.707Z,100998.69
2023-01-30T09:02:12.736Z,101001.19
2023-01-30T09:04:39.491Z,101001.97
2023-01-30T09:07:06.158Z,100999.31
2023-01-30T09:09:32.989Z,100990.22
2023-01-30T09:11:59.556Z,100992.97
2023-01-30T09:14:26.464Z,100991.84
2023-01-30T09:16:56.104Z,100998.91
2023-01-30T09:19:27.283Z,100999.53
2023-01-30T09:21:55.657Z,101003.44
2023-01-30T09:24:26.956Z,101003.44
2023-01-30T09:26:58.913Z,101006.31
2023-01-30T09:29:26.847Z,101020.91
2023-01-30T09:31:54.001Z,101019.66
2023-01-30T09:34:20.655Z,101021.50
2023-01-30T09:36:47.265Z,101017.09
2023-01-30T09:39:14.153Z,101017.09
2023-01-30T09:42:05.390Z,101018.63
2023-01-30T09:45:05.783Z,101027.06
2023-01-30T09:47:47.927Z,101027.88
2023-01-30T09:50:52.047Z,101039.59
2023-01-30T09:53:45.137Z,101049.03
2023-01-30T09:56:11.990Z,101057.66
2023-01-30T09:58:58.830Z,101058.50
2023-01-30T10:01:44.710Z,101043.47
2023-01-30T10:04:17.612Z,101067.41
2023-01-30T10:07:07.804Z,101054.97
2023-01-30T10:09:58.828Z,101066.25
2023-01-30T10:12:43.732Z,101060.72
2023-01-30T10:15:16.682Z,101055.28
2023-01-30T10:18:04.383Z,101048.41
2023-01-30T10:21:04.181Z,101054.16
2023-01-30T10:24:01.677Z,101064.44
2023-01-30T10:26:31.255Z,101068.03
2023-01-30T10:29:07.617Z,101063.81
2023-01-30T10:31:42.361Z,101070.78
2023-01-30T10:34:23.153Z,101070.19
2023-01-30T10:37:02.124Z,101069.34
2023-01-30T10:39:54.357Z,101071.81
2023-01-30T10:42:34.837Z,101079.00
2023-01-30T10:45:11.969Z,101084.44
2023-01-30T10:47:47.102Z,101085.59
2023-01-30T10:50:26.273Z,101082.72
2023-01-30T10:53:04.931Z,101076.84
2023-01-30T10:55:38.515Z,101078.50
2023-01-30T10:58:34.813Z,101084.06
2023-01-30T11:01:03.933Z,101089.59
2023-01-30T11:03:41.859Z,101075.41
2023-01-30T11:06:19.307Z,101076.56
2023-01-30T11:08:46.200Z,101084.78
2023-01-30T11:11:29.746Z,101089.72
2023-01-30T11:14:12.200Z,101089.72
2023-01-30T11:16:46.577Z,101087.75
2023-01-30T11:19:20.828Z,101083.53
2023-01-30T11:21:53.796Z,101070.78
2023-01-30T11:24:29.923Z,101066.06
2023-01-30T11:27:10.828Z,101070.19
2023-01-30T11:29:40.496Z,101076.34
2023-01-30T11:32:14.843Z,101067.91
2023-01-30T11:34:43.908Z,101074.00
2023-01-30T11:37:30.569Z,101074.28
2023-01-30T11:39:57.245Z,101066.78
2023-01-30T11:42:33.035Z,101069.06
2023-01-30T11:45:19.183Z,101074.59
2023-01-30T11:47:57.790Z,101079.31
2023-01-30T11:51:32.168Z,101080.78
2023-01-30T11:53:38.131Z,101078.00
2023-01-30T11:56:32.398Z,101086.31
2023-01-30T11:59:01.853Z,101071.94
2023-01-30T12:01:30.005Z,101088.06
2023-01-30T12:03:58.272Z,101081.06
2023-01-30T12:06:37.627Z,101084.16
2023-01-30T12:09:04.883Z,101082.59
2023-01-30T12:11:40.199Z,101089.09
2023-01-30T12:14:13.053Z,101088.88
2023-01-30T12:16:59.063Z,101094.00
2023-01-30T12:19:47.633Z,101079.31
2023-01-30T12:22:23.431Z,101073.06
2023-01-30T12:25:00.111Z,101079.53
2023-01-30T12:27:48.911Z,101082.09
2023-01-30T12:30:27.845Z,101083.94
2023-01-30T12:35:38.310Z,101090.31
2023-01-30T12:38:34.263Z,101088.69
2023-01-30T12:41:31.564Z,101081.50
2023-01-30T12:44:04.215Z,101077.78
2023-01-30T12:46:30.998Z,101096.69
2023-01-30T12:49:39.576Z,101090.63
2023-01-30T12:52:25.300Z,101092.59
2023-01-30T12:55:26.997Z,101092.16
2023-01-30T13:01:10.287Z,101092.97
2023-01-30T13:07:18.814Z,101091.34
2023-01-30T13:10:00.402Z,101095.66
2023-01-30T13:12:35.702Z,101100.47
2023-01-30T13:15:21.266Z,101106.56
2023-01-30T13:18:02.959Z,101107.34
2023-01-30T13:20:59.003Z,101113.53
2023-01-30T13:24:04.237Z,101107.88
2023-01-30T13:26:35.483Z,101111.50
2023-01-30T13:29:36.056Z,101108.41
2023-01-30T13:32:06.862Z,101104.50
2023-01-30T13:34:40.718Z,101115.88
2023-01-30T13:37:10.937Z,101117.22
2023-01-30T13:39:47.625Z,101119.91
2023-01-30T13:42:39.038Z,101122.47
2023-01-30T13:45:07.484Z,101122.38
2023-01-30T13:48:03.748Z,101126.59
2023-01-30T13:51:01.272Z,101138.09
2023-01-30T13:53:31.059Z,101133.69
2023-01-30T13:56:08.956Z,101150.31
2023-01-30T13:58:44.393Z,101151.16
2023-01-30T14:01:12.708Z,101152.97
2023-01-30T14:03:44.121Z,101159.03
2023-01-30T14:06:33.737Z,101160.81
2023-01-30T14:09:05.600Z,101159.16
2023-01-30T14:11:37.109Z,101165.19
2023-01-30T14:14:25.945Z,101172.41
2023-01-30T14:16:58.655Z,101174.56
2023-01-30T14:19:57.834Z,101192.03
2023-01-30T14:22:37.717Z,101193.06
2023-01-30T14:25:22.742Z,101202.22
2023-01-30T14:27:52.798Z,101198.84
2023-01-30T14:30:31.633Z,101203.56
2023-01-30T14:33:00.948Z,101204.41
2023-01-30T14:35:28.919Z,101208.81
2023-01-30T14:38:17.558Z,101199.38
2023-01-30T14:40:46.760Z,101198.22
2023-01-30T14:43:14.829Z,101208.31
2023-01-30T14:46:01.647Z,101212.63
2023-01-30T14:48:44.307Z,101215.38
2023-01-30T14:51:12.818Z,101222.91
2023-01-30T14:54:10.220Z,101225.38
2023-01-30T14:56:54.868Z,101234.00
2023-01-30T14:59:27.539Z,101248.19
2023-01-30T15:02:06.779Z,101245.91
2023-01-30T15:04:56.381Z,101254.22
2023-01-30T15:07:43.096Z,101263.59
2023-01-30T15:10:33.533Z,101263.38
2023-01-30T15:13:18.799Z,101264.44
2023-01-30T15:15:50.929Z,101270.81
2023-01-30T15:18:42.483Z,101277.59
2023-01-30T15:21:39.808Z,101274.94
2023-01-30T15:24:18.014Z,101287.06
2023-01-30T15:27:31.597Z,101307.44
2023-01-30T15:30:17.445Z,101301.25
2023-01-30T15:32:44.967Z,101306.19
2023-01-30T15:35:11.654Z,101305.19
2023-01-30T15:37:46.923Z,101308.97
2023-01-30T15:40:18.097Z,101324.41
2023-01-30T15:42:48.132Z,101323.69
2023-01-30T15:45:33.713Z,101328.22
2023-01-30T15:48:03.133Z,101330.69
2023-01-30T15:50:29.916Z,101325.75
2023-01-30T15:52:58.225Z,101325.94
2023-01-30T15:55:37.202Z,101336.22
2023-01-30T15:58:10.959Z,101330.88
2023-01-30T16:00:44.302Z,101343.84
2023-01-30T16:03:15.452Z,101343.22
2023-01-30T16:05:50.253Z,101348.16
2023-01-30T16:08:21.623Z,101353.84
2023-01-30T16:10:49.856Z,101363.59
2023-01-30T16:13:17.598Z,101362.16
2023-01-30T16:16:01.590Z,101366.66
2023-01-30T16:18:51.486Z,101362.78
2023-01-30T16:21:27.251Z,101365.88
2023-01-30T16:24:05.533Z,101385.59
2023-01-30T16:26:36.426Z,101381.50
2023-01-30T16:29:08.010Z,101388.16
2023-01-30T16:31:38.681Z,101387.44
2023-01-30T16:34:05.608Z,101392.97
2023-01-30T16:36:39.793Z,101391.03
2023-01-30T16:39:36.156Z,101387.22
2023-01-30T16:42:20.171Z,101393.91
2023-01-30T16:44:46.945Z,101394.75
2023-01-30T16:47:28.858Z,101397.50
2023-01-30T16:49:56.835Z,101404.50
2023-01-30T16:52:31.477Z,101403.06
2023-01-30T16:55:00.996Z,101411.91
2023-01-30T16:57:36.315Z,101425.47
2023-01-30T17:00:29.049Z,101423.63
2023-01-30T17:02:57.455Z,101431.03
2023-01-30T17:05:30.190Z,101433.50
2023-01-30T17:07:58.443Z,101432.41
2023-01-30T17:10:40.278Z,101443.41
2023-01-30T17:13:26.526Z,101452.34
2023-01-30T17:15:54.913Z,101458.41
2023-01-30T17:18:21.582Z,101462.31
2023-01-30T17:20:51.310Z,101462.31
2023-01-30T17:23:20.871Z,101472.63
2023-01-30T17:25:49.066Z,101467.50
2023-01-30T17:28:21.159Z,101479.97
2023-01-30T17:30:49.291Z,101479.34
2023-01-30T17:33:16.121Z,101488.50
2023-01-30T17:35:44.426Z,101482.34
2023-01-30T17:38:12.331Z,101483.50
2023-01-30T17:40:39.056Z,101488.72
2023-01-30T17:43:05.885Z,101488.94
2023-01-30T17:45:32.538Z,101495.53
2023-01-30T17:47:59.183Z,101494.91
2023-01-30T17:50:26.202Z,101495.97
2023-01-30T17:52:53.001Z,101496.78
2023-01-30T17:55:21.271Z,101502.13
2023-01-30T17:57:48.937Z,101504.28
2023-01-30T18:00:20.356Z,101504.06
2023-01-30T18:02:47.667Z,101499.63
2023-01-30T18:05:14.903Z,101513.00
2023-01-30T18:07:42.551Z,101511.34
2023-01-30T18:10:15.563Z,101514.66
2023-01-30T18:12:42.840Z,101515.25
2023-01-30T18:15:10.521Z,101523.06
2023-01-30T18:17:46.068Z,101525.31
2023-01-30T18:20:15.052Z,101531.69
2023-01-30T18:22:41.731Z,101528.69
2023-01-30T18:25:08.576Z,101533.75
2023-01-30T18:27:35.339Z,101543.19
2023-01-30T18:30:03.251Z,101539.91
2023-01-30T18:32:30.778Z,101536.63
2023-01-30T18:34:58.595Z,101542.16
2023-01-30T18:37:26.415Z,101542.97
2023-01-30T18:39:53.142Z,101548.84
2023-01-30T18:42:19.814Z,101547.72
2023-01-30T18:44:46.390Z,101561.06
2023-01-30T18:47:13.513Z,101561.66
2023-01-30T18:49:40.244Z,101566.41
2023-01-30T18:52:06.927Z,101567.81
2023-01-30T18:54:33.633Z,101566.72
2023-01-30T18:57:00.260Z,101571.16
2023-01-30T18:59:27.311Z,101574.00
2023-01-30T19:02:05.257Z,101572.34
2023-01-30T19:04:31.932Z,101574.00
2023-01-30T19:06:58.642Z,101578.41
2023-01-30T19:09:26.769Z,101586.75
2023-01-30T19:12:31.801Z,101590.66
2023-01-30T19:14:58.400Z,101586.47
2023-01-30T19:17:25.050Z,101588.16
2023-01-30T19:19:51.920Z,101582.63
2023-01-30T19:22:18.780Z,101583.97
2023-01-30T19:24:45.567Z,101581.78
2023-01-30T19:27:13.881Z,101578.41
2023-01-30T19:29:42.752Z,101575.13
2023-01-30T19:32:09.606Z,101576.22
2023-01-30T19:34:37.196Z,101578.13
2023-01-30T19:37:04.067Z,101578.94
2023-01-30T19:39:30.707Z,101579.25
2023-01-30T19:41:57.455Z,101589.00
2023-01-30T19:44:26.961Z,101589.84
2023-01-30T19:46:53.617Z,101591.25
2023-01-30T19:49:20.416Z,101594.56
2023-01-30T19:51:47.244Z,101593.44
2023-01-30T19:54:13.971Z,101603.41
2023-01-30T19:56:42.544Z,101605.91
2023-01-30T19:59:12.561Z,101604.47
2023-01-30T20:01:40.565Z,101610.63
2023-01-30T20:04:07.731Z,101605.66
2023-01-30T20:06:37.352Z,101609.19
2023-01-30T20:09:06.785Z,101615.56
2023-01-30T20:11:36.023Z,101621.13
2023-01-30T20:14:05.358Z,101621.97
2023-01-30T20:16:34.553Z,101627.78
2023-01-30T20:19:12.225Z,101626.44
2023-01-30T20:21:38.868Z,101627.78
2023-01-30T20:24:07.166Z,101633.88
2023-01-30T20:26:36.746Z,101635.00
2023-01-30T20:29:04.379Z,101634.19
2023-01-30T20:31:31.754Z,101640.25
2023-01-30T20:34:02.043Z,101636.13
2023-01-30T20:36:28.774Z,101640.03
2023-01-30T20:38:56.145Z,101640.03
2023-01-30T20:41:26.135Z,101634.03
2023-01-30T20:43:57.231Z,101630.72
2023-01-30T20:46:29.107Z,101634.63
2023-01-30T20:49:03.172Z,101624.63
2023-01-30T20:51:32.482Z,101617.72
2023-01-30T20:54:02.784Z,101620.00
2023-01-30T20:56:38.435Z,101627.56
2023-01-30T20:59:07.501Z,101633.94
2023-01-30T21:01:34.460Z,101638.59
2023-01-30T21:04:06.501Z,101650.28
2023-01-30T21:06:42.602Z,101637.47
2023-01-30T21:09:19.197Z,101650.22
2023-01-30T21:11:46.150Z,101639.88
2023-01-30T21:14:13.594Z,101645.72
2023-01-30T21:16:40.739Z,101644.53
2023-01-30T21:19:13.803Z,101642.88
2023-01-30T21:21:45.705Z,101638.97
2023-01-30T21:24:14.867Z,101645.06
2023-01-30T21:26:46.127Z,101649.78
2023-01-30T21:29:15.559Z,101642.28
2023-01-30T21:31:44.237Z,101654.44
2023-01-30T21:34:11.283Z,101651.13
2023-01-30T21:36:39.174Z,101662.19
2023-01-30T21:39:25.118Z,101657.22
2023-01-30T21:41:51.972Z,101663.78
2023-01-30T21:44:20.705Z,101666.91
2023-01-30T21:46:48.707Z,101670.75
2023-01-30T21:49:34.792Z,101675.63
2023-01-30T21:52:01.802Z,101677.69
2023-01-30T21:54:28.705Z,101674.63
2023-01-30T21:56:58.611Z,101676.66
2023-01-30T21:59:25.204Z,101684.88
2023-01-30T22:01:51.959Z,101690.78
2023-01-30T22:04:19.508Z,101681.94
2023-01-30T22:06:46.225Z,101679.28
2023-01-30T22:09:14.797Z,101686.00
2023-01-30T22:11:56.720Z,101677.09
2023-01-30T22:14:26.391Z,101691.00
2023-01-30T22:16:53.306Z,101695.19
2023-01-30T22:19:20.124Z,101692.13
2023-01-30T22:21:50.778Z,101698.50
2023-01-30T22:24:17.671Z,101684.91
2023-01-30T22:26:44.566Z,101685.44
2023-01-30T22:29:11.279Z,101678.25
2023-01-30T22:31:40.422Z,101676.28
2023-01-30T22:34:07.446Z,101687.94
2023-01-30T22:36:35.093Z,101674.88
2023-01-30T22:39:02.732Z,101679.38
2023-01-30T22:41:34.716Z,101679.72
2023-01-30T22:44:03.662Z,101683.41
2023-01-30T22:46:33.066Z,101685.59
2023-01-30T22:49:00.400Z,101690.00
2023-01-30T22:51:33.038Z,101696.09
2023-01-30T22:54:07.238Z,101697.22
2023-01-30T22:56:42.123Z,101688.13
2023-01-30T22:59:09.873Z,101686.94
2023-01-30T23:01:45.786Z,101678.97
2023-01-30T23:04:15.683Z,101680.88
2023-01-30T23:06:43.171Z,101677.53
2023-01-30T23:09:14.636Z,101678.69
2023-01-30T23:12:10.323Z,101671.47
2023-01-30T23:14:42.205Z,101667.34
2023-01-30T23:17:27.919Z,101665.69
2023-01-30T23:19:55.226Z,101660.13
2023-01-30T23:22:22.012Z,101664.56
2023-01-30T23:24:49.873Z,101665.69
2023-01-30T23:27:16.556Z,101663.81
2023-01-30T23:29:43.548Z,101664.66
2023-01-30T23:32:10.459Z,101669.13
2023-01-30T23:34:37.700Z,101664.69
2023-01-30T23:37:04.622Z,101666.28
2023-01-30T23:39:31.413Z,101663.50
2023-01-30T23:41:58.209Z,101657.44
2023-01-30T23:44:24.791Z,101656.38
2023-01-30T23:46:51.616Z,101667.03
2023-01-30T23:49:18.361Z,101673.16
2023-01-30T23:51:45.315Z,101665.91
2023-01-30T23:54:13.541Z,101671.50
2023-01-30T23:56:43.008Z,101667.63
2023-01-30T23:59:10.676Z,101668.22
